Time;durP1;ratioP1;P1;durP2;ratioP2;P2;SDS_P1;SDS_P2;PMS_P1;PMS_P2;Temp;Humidity;BMP_temperature;BMP_pressure;BME280_temperature;BME280_humidity;BME280_pressure;Samples;Min_cycle;Max_cycle;Signal;HPM_P1;HPM_P2
2022/10/19 00:00:43;;;;;;;1.60;1.50;;;19.80;55.30;;;;;;5134060;28;20099;-11
2022/10/19 00:03:09;;;;;;;1.88;1.23;;;19.80;55.30;;;;;;5134024;28;20055;-11
2022/10/19 00:05:34;;;;;;;2.10;1.30;;;19.80;55.30;;;;;;5134572;28;20054;-11
2022/10/19 00:08:00;;;;;;;1.15;1.00;;;19.80;55.30;;;;;;5134080;28;20054;-11
2022/10/19 00:10:26;;;;;;;2.58;1.38;;;19.80;55.30;;;;;;5133969;28;20089;-11
2022/10/19 00:12:52;;;;;;;1.85;1.42;;;19.80;55.30;;;;;;5134383;28;20059;-11
2022/10/19 00:15:17;;;;;;;2.50;1.40;;;19.80;55.20;;;;;;5134125;28;20554;-11
2022/10/19 00:17:43;;;;;;;1.17;0.90;;;19.80;55.20;;;;;;5133791;28;20126;-11
2022/10/19 00:20:10;;;;;;;2.13;1.27;;;19.80;55.20;;;;;;5133616;28;20055;-11
2022/10/19 00:22:35;;;;;;;1.63;1.13;;;19.80;55.20;;;;;;5133742;28;20093;-11
2022/10/19 00:25:01;;;;;;;2.13;1.10;;;19.80;55.20;;;;;;5133756;28;20043;-11
2022/10/19 00:27:26;;;;;;;1.33;1.13;;;19.80;55.20;;;;;;5133601;28;20138;-11
2022/10/19 00:29:52;;;;;;;1.55;1.17;;;19.80;55.20;;;;;;5115035;28;20047;-11
2022/10/19 00:32:17;;;;;;;1.27;1.17;;;19.80;55.20;;;;;;5133364;28;20100;-11
2022/10/19 00:34:43;;;;;;;1.67;1.10;;;19.80;55.20;;;;;;5133548;28;20043;-11
2022/10/19 00:37:08;;;;;;;1.77;1.17;;;19.80;55.20;;;;;;5133983;28;20111;-11
2022/10/19 00:39:34;;;;;;;1.25;1.02;;;19.80;55.20;;;;;;5133895;28;20500;-11
2022/10/19 00:41:59;;;;;;;2.55;1.20;;;19.80;55.20;;;;;;5133487;28;20051;-11
2022/10/19 00:44:28;;;;;;;3.08;1.27;;;19.80;55.10;;;;;;5135858;27;20047;-11
2022/10/19 00:46:58;;;;;;;1.88;1.05;;;19.80;55.20;;;;;;5137422;28;20047;-11
2022/10/19 00:49:28;;;;;;;1.73;1.10;;;19.80;55.10;;;;;;5137409;28;20065;-11
2022/10/19 00:52:00;;;;;;;1.48;1.15;;;19.80;55.20;;;;;;5137065;28;20288;-11
2022/10/19 00:54:26;;;;;;;1.48;0.90;;;19.80;55.10;;;;;;5118564;28;20051;-11
2022/10/19 00:56:55;;;;;;;2.42;1.30;;;19.80;55.10;;;;;;5137025;28;20418;-11
2022/10/19 00:59:23;;;;;;;1.75;1.25;;;19.80;55.10;;;;;;5136954;28;20054;-11
2022/10/19 01:01:50;;;;;;;1.40;1.17;;;19.80;55.20;;;;;;5136906;28;20061;-11
2022/10/19 01:04:19;;;;;;;1.55;1.08;;;19.80;55.10;;;;;;5137201;28;20065;-11
2022/10/19 01:06:45;;;;;;;1.73;1.17;;;19.80;55.10;;;;;;5136652;28;20059;-13
2022/10/19 01:09:10;;;;;;;1.40;1.30;;;19.80;55.10;;;;;;5137163;28;20126;-11
2022/10/19 01:11:50;;;;;;;2.92;1.50;;;19.80;55.10;;;;;;5137248;28;20543;-11
2022/10/19 01:14:42;;;;;;;1.15;1.00;;;19.80;55.10;;;;;;5137053;28;20065;-11
2022/10/19 01:17:19;;;;;;;3.03;1.27;;;19.80;55.10;;;;;;5135857;28;20134;-11
2022/10/19 01:20:19;;;;;;;1.48;1.38;;;19.80;55.10;;;;;;5136916;28;20078;-11
2022/10/19 01:23:03;;;;;;;2.35;1.27;;;19.80;55.10;;;;;;5136623;28;20500;-11
2022/10/19 01:25:52;;;;;;;1.27;1.15;;;19.80;55.10;;;;;;5136532;28;20476;-11
2022/10/19 01:28:34;;;;;;;2.00;1.15;;;19.80;55.10;;;;;;5136461;28;20059;-11
2022/10/19 01:31:13;;;;;;;1.70;1.13;;;19.80;55.10;;;;;;5136280;28;20550;-11
2022/10/19 01:33:49;;;;;;;2.53;1.38;;;19.80;55.10;;;;;;5136444;28;20051;-11
2022/10/19 01:36:49;;;;;;;2.10;1.30;;;19.80;55.10;;;;;;5136401;28;20050;-11
2022/10/19 01:39:40;;;;;;;2.83;1.40;;;19.70;55.00;;;;;;5136290;28;20168;-11
2022/10/19 01:42:27;;;;;;;1.55;1.17;;;19.80;55.10;;;;;;5136565;28;20497;-11
2022/10/19 01:45:19;;;;;;;1.52;1.20;;;19.80;55.10;;;;;;5136316;28;20395;-11
2022/10/19 01:48:01;;;;;;;1.55;1.00;;;19.80;55.00;;;;;;5117820;28;20414;-11
2022/10/19 01:50:34;;;;;;;1.73;1.17;;;19.80;55.10;;;;;;5136426;28;20550;-11
2022/10/19 01:53:03;;;;;;;1.73;1.20;;;19.70;55.00;;;;;;5136629;28;20100;-11
2022/10/19 01:55:30;;;;;;;1.58;1.00;;;19.80;55.00;;;;;;5136449;27;20086;-11
2022/10/19 01:58:02;;;;;;;2.13;1.15;;;19.80;55.10;;;;;;5136007;28;20050;-11
2022/10/19 02:00:29;;;;;;;1.08;1.00;;;19.80;55.00;;;;;;5136685;28;20050;-11
2022/10/19 02:02:57;;;;;;;2.25;1.05;;;19.80;55.00;;;;;;5135946;28;20055;-11
2022/10/19 02:05:29;;;;;;;2.90;1.35;;;19.80;55.00;;;;;;5135852;28;20062;-9
2022/10/19 02:07:58;;;;;;;1.05;0.95;;;19.70;55.00;;;;;;5135782;28;20058;-9
2022/10/19 02:10:26;;;;;;;1.98;1.23;;;19.80;55.00;;;;;;5135849;28;20047;-9
2022/10/19 02:12:53;;;;;;;1.65;1.13;;;19.80;55.00;;;;;;5136262;28;20390;-9
2022/10/19 02:15:23;;;;;;;1.85;1.30;;;19.70;54.90;;;;;;5135687;28;20055;-9
2022/10/19 02:17:55;;;;;;;2.00;0.93;;;19.80;55.00;;;;;;5135723;28;20082;-11
2022/10/19 02:20:22;;;;;;;1.60;1.00;;;19.80;55.00;;;;;;5135608;28;20482;-9
2022/10/19 02:22:47;;;;;;;2.90;1.20;;;19.70;54.90;;;;;;5136260;28;20104;-9
2022/10/19 02:25:14;;;;;;;1.48;1.27;;;19.70;54.90;;;;;;5135919;28;20059;-9
2022/10/19 02:27:41;;;;;;;2.20;1.35;;;19.70;54.90;;;;;;5135610;28;20063;-9
2022/10/19 02:30:08;;;;;;;1.23;0.90;;;19.70;54.90;;;;;;5135373;28;20051;-9
2022/10/19 02:32:34;;;;;;;1.25;1.00;;;19.80;55.00;;;;;;5117062;28;20054;-9
2022/10/19 02:35:00;;;;;;;2.00;1.20;;;19.80;55.00;;;;;;5135406;28;20043;-9
2022/10/19 02:37:25;;;;;;;1.38;0.88;;;19.70;54.90;;;;;;5135352;28;20303;-9
2022/10/19 02:39:51;;;;;;;1.13;0.90;;;19.80;54.90;;;;;;5136019;28;20051;-9
2022/10/19 02:42:28;;;;;;;1.27;0.98;;;19.80;54.90;;;;;;5135728;28;20130;-9
2022/10/19 02:45:10;;;;;;;2.50;1.30;;;19.70;54.90;;;;;;5135334;28;20054;-9
2022/10/19 02:47:40;;;;;;;2.05;0.98;;;19.70;55.40;;;;;;5135327;28;20069;-10
2022/10/19 02:50:08;;;;;;;1.15;1.00;;;19.70;54.90;;;;;;5135863;28;20115;-9
2022/10/19 02:52:36;;;;;;;1.45;0.98;;;19.70;54.90;;;;;;5135373;28;20147;-9
2022/10/19 02:55:03;;;;;;;1.65;1.08;;;19.70;54.90;;;;;;5135121;28;20055;-9
2022/10/19 02:57:31;;;;;;;1.80;0.93;;;19.70;54.90;;;;;;5134468;28;20522;-9
2022/10/19 02:59:57;;;;;;;1.25;1.10;;;19.70;54.80;;;;;;5135623;28;20055;-9
2022/10/19 03:02:22;;;;;;;1.73;1.00;;;19.70;54.80;;;;;;5134833;28;20398;-9
2022/10/19 03:04:48;;;;;;;1.00;0.82;;;19.70;54.80;;;;;;5135310;28;20047;-9
2022/10/19 03:07:16;;;;;;;2.13;1.13;;;19.70;54.90;;;;;;5134177;27;20461;-10
2022/10/19 03:09:43;;;;;;;2.25;1.33;;;19.70;54.90;;;;;;5134845;28;20055;-9
2022/10/19 03:12:10;;;;;;;1.50;1.15;;;19.70;55.00;;;;;;5134607;28;20043;-9
2022/10/19 03:14:35;;;;;;;1.45;0.90;;;19.80;55.00;;;;;;5134841;28;20507;-9
2022/10/19 03:17:02;;;;;;;1.30;1.10;;;19.70;54.90;;;;;;5135066;28;20054;-10
2022/10/19 03:19:28;;;;;;;1.77;1.08;;;19.80;55.00;;;;;;5134508;28;20050;-9
2022/10/19 03:21:54;;;;;;;2.42;1.15;;;19.80;55.00;;;;;;5134739;28;20059;-9
2022/10/19 03:24:20;;;;;;;1.33;1.00;;;19.80;55.00;;;;;;5135011;28;20047;-9
2022/10/19 03:26:46;;;;;;;1.88;1.10;;;19.80;55.00;;;;;;5134654;28;20047;-9
2022/10/19 03:29:11;;;;;;;1.73;1.00;;;19.80;55.00;;;;;;5134596;28;20134;-9
2022/10/19 03:31:37;;;;;;;0.85;0.80;;;19.80;54.90;;;;;;5134497;28;20047;-9
2022/10/19 03:34:03;;;;;;;1.88;1.00;;;19.80;54.90;;;;;;5134800;28;20133;-9
2022/10/19 03:36:34;;;;;;;1.23;0.80;;;19.80;54.90;;;;;;5134516;28;20091;-9
2022/10/19 03:39:01;;;;;;;;;;;19.80;54.90;;;;;;5134712;28;20055;-9
2022/10/19 03:41:29;;;;;;;1.20;0.85;;;19.80;54.90;;;;;;5134467;28;19916;-9
2022/10/19 03:43:55;;;;;;;1.17;0.90;;;19.80;54.80;;;;;;5134212;28;20146;-9
2022/10/19 03:46:21;;;;;;;2.08;1.20;;;19.90;54.90;;;;;;5134273;28;20055;-9
2022/10/19 03:48:47;;;;;;;2.05;1.17;;;19.80;54.90;;;;;;5134241;28;20043;-9
2022/10/19 03:51:15;;;;;;;1.30;1.08;;;19.80;54.80;;;;;;5134268;28;20387;-9
2022/10/19 03:53:41;;;;;;;1.45;1.15;;;19.80;54.80;;;;;;5134150;28;20096;-9
2022/10/19 03:56:11;;;;;;;1.70;0.82;;;19.80;54.90;;;;;;5134199;28;20063;-9
2022/10/19 03:58:39;;;;;;;1.77;1.00;;;19.80;54.90;;;;;;5133977;28;20073;-9
2022/10/19 04:01:11;;;;;;;1.60;0.98;;;19.80;54.80;;;;;;5134053;28;20043;-9
2022/10/19 04:03:36;;;;;;;1.05;0.70;;;19.80;54.80;;;;;;5134137;28;20075;-9
2022/10/19 04:06:08;;;;;;;1.48;1.08;;;19.80;54.80;;;;;;5134117;28;20089;-9
2022/10/19 04:08:34;;;;;;;1.73;0.77;;;19.80;54.80;;;;;;5133991;28;20047;-9
2022/10/19 04:11:06;;;;;;;1.25;0.90;;;19.80;54.90;;;;;;5133931;28;20051;-9
2022/10/19 04:13:33;;;;;;;1.13;0.90;;;19.80;54.80;;;;;;5133931;28;20059;-9
2022/10/19 04:15:59;;;;;;;0.70;0.70;;;19.80;54.90;;;;;;5134316;28;20051;-10
2022/10/19 04:18:25;;;;;;;1.98;1.10;;;19.80;54.90;;;;;;5132589;27;20066;-9
2022/10/19 04:20:58;;;;;;;1.45;1.20;;;19.80;54.80;;;;;;5134037;28;20051;-9
2022/10/19 04:23:29;;;;;;;1.65;1.00;;;19.80;54.90;;;;;;5133811;28;20095;-9
2022/10/19 04:26:03;;;;;;;1.30;1.05;;;19.80;54.90;;;;;;5133774;28;20070;-9
2022/10/19 04:28:29;;;;;;;0.90;0.80;;;19.80;54.80;;;;;;5133460;28;20142;-9
2022/10/19 04:30:55;;;;;;;1.00;0.90;;;19.80;54.80;;;;;;5133900;28;20527;-9
2022/10/19 04:33:21;;;;;;;1.13;0.80;;;19.80;55.40;;;;;;5133571;28;20043;-9
2022/10/19 04:35:47;;;;;;;0.82;0.80;;;19.80;54.90;;;;;;5133686;28;20051;-9
2022/10/19 04:38:12;;;;;;;0.77;0.73;;;19.80;54.90;;;;;;5133812;28;20051;-10
2022/10/19 04:40:38;;;;;;;1.67;1.10;;;19.80;54.90;;;;;;5133871;28;20534;-9
2022/10/19 04:43:04;;;;;;;1.20;1.02;;;19.80;54.90;;;;;;5133783;28;20043;-9
2022/10/19 04:45:30;;;;;;;2.30;1.00;;;19.70;54.80;;;;;;5133496;28;20202;-9
2022/10/19 04:47:55;;;;;;;1.10;0.90;;;19.70;54.80;;;;;;5133327;28;20407;-9
2022/10/19 04:50:22;;;;;;;0.70;0.70;;;19.70;54.80;;;;;;5133970;28;20054;-9
2022/10/19 04:52:54;;;;;;;1.20;1.00;;;19.80;54.90;;;;;;5133863;28;20078;-9
2022/10/19 04:55:19;;;;;;;1.67;0.73;;;19.70;54.90;;;;;;5133672;28;20105;-9
2022/10/19 04:57:45;;;;;;;1.38;1.00;;;19.70;54.80;;;;;;5133594;28;20142;-9
2022/10/19 05:00:11;;;;;;;0.95;0.80;;;19.80;54.90;;;;;;5133074;28;20486;-9
2022/10/19 05:02:42;;;;;;;1.95;0.95;;;19.70;54.90;;;;;;5133239;28;20043;-9
2022/10/19 05:05:08;;;;;;;2.83;1.03;;;19.70;54.80;;;;;;5133682;28;20058;-9
2022/10/19 05:07:33;;;;;;;0.93;0.80;;;19.70;54.90;;;;;;5133147;28;20047;-9
2022/10/19 05:09:59;;;;;;;0.98;0.90;;;19.70;54.90;;;;;;5133188;28;20061;-9
2022/10/19 05:12:24;;;;;;;1.05;0.80;;;19.70;54.80;;;;;;5133112;28;20051;-11
2022/10/19 05:14:50;;;;;;;1.33;1.00;;;19.70;54.80;;;;;;5133571;28;20055;-9
2022/10/19 05:17:16;;;;;;;1.15;0.75;;;19.70;54.80;;;;;;5133591;28;20059;-9
2022/10/19 05:19:41;;;;;;;2.55;1.02;;;19.70;54.70;;;;;;5133429;28;20505;-9
2022/10/19 05:22:07;;;;;;;1.20;0.80;;;19.70;54.70;;;;;;5132946;28;20048;-9
2022/10/19 05:24:33;;;;;;;1.90;0.77;;;19.70;54.70;;;;;;5133025;28;20062;-9
2022/10/19 05:26:58;;;;;;;1.13;0.93;;;19.70;54.80;;;;;;5133154;28;20043;-10
2022/10/19 05:29:24;;;;;;;5.10;1.17;;;19.70;54.80;;;;;;5133582;27;20088;-9
2022/10/19 05:31:50;;;;;;;1.83;1.10;;;19.70;54.80;;;;;;5136456;28;20043;-9
2022/10/19 05:34:15;;;;;;;0.75;0.75;;;19.80;54.80;;;;;;5136779;28;20085;-9
2022/10/19 05:36:41;;;;;;;1.13;1.02;;;19.70;54.70;;;;;;5136686;28;20051;-9
2022/10/19 05:39:18;;;;;;;1.40;0.80;;;19.80;54.70;;;;;;5136377;28;20051;-9
2022/10/19 05:41:44;;;;;;;0.80;0.80;;;19.70;54.70;;;;;;5136655;28;20054;-9
2022/10/19 05:44:14;;;;;;;1.00;0.90;;;19.80;54.70;;;;;;5136695;28;20479;-9
2022/10/19 05:46:40;;;;;;;0.70;0.68;;;19.80;54.70;;;;;;5136197;28;20119;-9
2022/10/19 05:49:06;;;;;;;1.90;0.88;;;19.70;54.60;;;;;;5135912;28;20498;-9
2022/10/19 05:51:31;;;;;;;1.48;0.90;;;19.80;54.70;;;;;;5136529;28;20096;-11
2022/10/19 05:53:57;;;;;;;1.35;0.85;;;19.80;54.70;;;;;;5136179;28;20399;-11
2022/10/19 05:56:25;;;;;;;1.55;0.80;;;19.80;54.70;;;;;;5136362;28;20051;-11
2022/10/19 05:58:51;;;;;;;1.42;0.80;;;19.80;54.60;;;;;;5136024;28;20118;-12
2022/10/19 06:01:18;;;;;;;0.88;0.70;;;19.80;54.60;;;;;;5136197;28;20501;-11
2022/10/19 06:03:44;;;;;;;1.58;0.90;;;19.80;54.60;;;;;;5135954;28;20062;-11
2022/10/19 06:06:10;;;;;;;0.82;0.80;;;19.80;54.60;;;;;;5135784;28;20188;-10
2022/10/19 06:08:37;;;;;;;1.25;0.88;;;19.80;54.60;;;;;;5135611;28;20411;-11
2022/10/19 06:11:04;;;;;;;1.50;0.70;;;19.80;54.60;;;;;;5135775;28;20461;-11
2022/10/19 06:13:30;;;;;;;1.25;0.90;;;19.70;54.60;;;;;;5117195;28;20487;-10
2022/10/19 06:15:56;;;;;;;1.55;1.25;;;19.80;54.70;;;;;;5135611;28;20057;-10
2022/10/19 06:18:24;;;;;;;1.50;0.93;;;19.70;54.60;;;;;;5135868;28;20074;-11
2022/10/19 06:20:51;;;;;;;1.55;0.88;;;19.80;54.70;;;;;;5135189;28;20165;-11
2022/10/19 06:23:16;;;;;;;1.02;0.93;;;19.70;54.60;;;;;;5135421;28;20092;-11
2022/10/19 06:25:42;;;;;;;0.93;0.60;;;19.80;54.70;;;;;;5135510;28;20051;-11
2022/10/19 06:28:08;;;;;;;2.55;1.00;;;19.80;54.70;;;;;;5135468;28;20051;-11
2022/10/19 06:30:36;;;;;;;2.00;0.90;;;19.80;54.70;;;;;;5135504;28;20495;-11
2022/10/19 06:33:02;;;;;;;1.75;0.93;;;19.80;54.70;;;;;;5116977;28;20047;-11
2022/10/19 06:35:27;;;;;;;2.63;1.17;;;19.80;54.70;;;;;;5135450;28;20051;-11
2022/10/19 06:37:55;;;;;;;0.85;0.80;;;19.80;54.70;;;;;;5135560;28;20415;-10
2022/10/19 06:40:21;;;;;;;2.10;0.70;;;19.80;54.60;;;;;;5135016;27;20062;-10
2022/10/19 06:42:46;;;;;;;0.88;0.80;;;19.80;54.60;;;;;;5134495;28;20055;-10
2022/10/19 06:45:12;;;;;;;1.27;0.80;;;19.90;54.40;;;;;;5135796;28;20380;-10
2022/10/19 06:47:37;;;;;;;2.00;0.90;;;20.00;54.10;;;;;;5135158;28;20055;-10
2022/10/19 06:50:05;;;;;;;1.15;0.93;;;20.10;53.90;;;;;;5135024;28;20068;-10
2022/10/19 06:52:31;;;;;;;1.15;0.93;;;20.20;53.60;;;;;;5134940;28;20398;-10
2022/10/19 06:54:57;;;;;;;1.23;1.02;;;20.30;53.50;;;;;;5135353;28;20059;-10
2022/10/19 06:57:22;;;;;;;0.80;0.80;;;20.40;53.30;;;;;;5134958;28;20055;-10
2022/10/19 06:59:48;;;;;;;1.20;0.80;;;20.40;53.10;;;;;;5135020;28;20054;-10
2022/10/19 07:02:14;;;;;;;1.27;0.90;;;20.50;52.90;;;;;;5134766;28;20411;-10
2022/10/19 07:04:40;;;;;;;1.38;0.90;;;20.60;52.60;;;;;;5134892;28;20047;-10
2022/10/19 07:07:06;;;;;;;1.48;1.15;;;20.70;52.50;;;;;;5134732;28;20051;-10
2022/10/19 07:09:32;;;;;;;3.03;0.90;;;20.70;52.40;;;;;;5135141;28;20043;-10
2022/10/19 07:11:57;;;;;;;1.48;1.00;;;20.70;52.40;;;;;;5134584;28;20050;-10
2022/10/19 07:14:23;;;;;;;2.22;0.95;;;20.70;52.40;;;;;;5134825;28;20047;-10
2022/10/19 07:16:50;;;;;;;3.28;0.95;;;20.70;52.30;;;;;;5135068;28;20108;-11
2022/10/19 07:19:16;;;;;;;0.63;0.63;;;20.70;52.30;;;;;;5134577;28;20043;-10
2022/10/19 07:21:43;;;;;;;1.73;0.90;;;20.70;52.50;;;;;;5134864;28;20047;-11
2022/10/19 07:24:09;;;;;;;1.70;1.15;;;20.70;52.50;;;;;;5134640;28;20043;-10
2022/10/19 07:26:35;;;;;;;1.45;0.85;;;20.70;52.40;;;;;;5134802;28;20051;-10
2022/10/19 07:29:02;;;;;;;1.00;0.70;;;20.70;52.40;;;;;;5134981;28;20047;-10
2022/10/19 07:31:28;;;;;;;1.88;0.95;;;20.70;52.40;;;;;;5134454;28;20043;-10
2022/10/19 07:33:59;;;;;;;4.57;1.13;;;20.70;52.40;;;;;;5134449;28;20471;-10
2022/10/19 07:36:27;;;;;;;1.38;0.80;;;20.70;52.40;;;;;;5134525;28;20122;-10
2022/10/19 07:38:54;;;;;;;0.85;0.65;;;20.60;52.50;;;;;;5134207;28;20482;-11
2022/10/19 07:41:22;;;;;;;2.45;0.93;;;20.60;52.50;;;;;;5134922;28;20060;-10
2022/10/19 07:43:48;;;;;;;1.65;0.82;;;20.60;52.60;;;;;;5134432;28;20078;-10
2022/10/19 07:46:17;;;;;;;1.50;1.00;;;20.60;52.50;;;;;;5134242;28;20407;-10
2022/10/19 07:48:43;;;;;;;1.10;0.70;;;20.60;52.60;;;;;;5133943;28;20141;-11
2022/10/19 07:51:11;;;;;;;3.70;1.10;;;20.60;52.60;;;;;;5134118;28;20057;-10
2022/10/19 07:53:37;;;;;;;3.22;1.02;;;20.60;52.60;;;;;;5133941;27;20039;-10
2022/10/19 07:56:06;;;;;;;2.80;1.10;;;20.60;52.70;;;;;;5134215;28;20078;-10
2022/10/19 07:58:33;;;;;;;3.35;1.17;;;20.50;52.70;;;;;;5133829;28;20046;-11
2022/10/19 08:01:12;;;;;;;0.95;0.82;;;20.50;52.80;;;;;;5133396;28;20139;-11
2022/10/19 08:03:39;;;;;;;1.20;1.10;;;20.50;52.90;;;;;;5133459;28;20054;-11
2022/10/19 08:06:08;;;;;;;1.58;0.98;;;20.50;52.80;;;;;;5133998;28;20047;-11
2022/10/19 08:08:34;;;;;;;1.00;0.90;;;20.50;52.90;;;;;;5133608;28;20064;-11
2022/10/19 08:11:13;;;;;;;1.85;0.90;;;20.50;52.90;;;;;;5133628;28;20510;-11
2022/10/19 08:13:39;;;;;;;0.88;0.80;;;20.40;52.90;;;;;;5133874;28;20046;-11
2022/10/19 08:16:17;;;;;;;1.38;0.93;;;20.40;53.00;;;;;;5133588;28;20047;-11
2022/10/19 08:18:43;;;;;;;3.15;1.10;;;20.40;53.10;;;;;;5115230;28;20043;-11
2022/10/19 08:21:09;;;;;;;1.67;0.70;;;20.40;53.10;;;;;;5133505;28;20062;-11
2022/10/19 08:23:35;;;;;;;2.47;1.02;;;20.40;53.20;;;;;;5115186;28;20043;-11
2022/10/19 08:26:00;;;;;;;1.42;0.80;;;20.30;53.20;;;;;;5133621;28;20523;-11
2022/10/19 08:28:26;;;;;;;1.73;0.80;;;20.30;53.20;;;;;;5133460;28;20046;-11
2022/10/19 08:30:56;;;;;;;2.00;1.20;;;20.30;53.20;;;;;;5114830;28;20043;-11
2022/10/19 08:33:23;;;;;;;0.77;0.60;;;20.30;53.20;;;;;;5133350;28;20057;-11
2022/10/19 08:35:49;;;;;;;3.92;1.30;;;20.30;53.30;;;;;;5133972;28;20051;-11
2022/10/19 08:38:15;;;;;;;2.75;0.90;;;20.30;53.40;;;;;;5133253;28;20070;-11
2022/10/19 08:40:44;;;;;;;1.67;1.17;;;20.30;53.40;;;;;;5133249;28;20055;-11
2022/10/19 08:43:19;;;;;;;2.50;1.00;;;20.30;53.40;;;;;;5133264;28;20062;-11
2022/10/19 08:46:08;;;;;;;2.47;1.13;;;20.30;53.40;;;;;;5133234;28;20134;-11
2022/10/19 08:48:38;;;;;;;1.63;0.90;;;20.20;53.30;;;;;;5133371;28;20051;-11
2022/10/19 08:51:05;;;;;;;1.85;1.02;;;20.30;53.40;;;;;;5132990;28;20105;-11
2022/10/19 08:53:57;;;;;;;2.92;1.27;;;20.30;53.40;;;;;;5132962;28;20142;-11
2022/10/19 08:56:29;;;;;;;3.28;1.30;;;20.30;53.40;;;;;;5115119;28;20090;-11
2022/10/19 08:59:11;;;;;;;3.92;1.10;;;20.20;53.40;;;;;;5114619;28;20061;-11
2022/10/19 09:01:58;;;;;;;2.58;1.08;;;20.20;53.40;;;;;;5131758;28;20506;-11
2022/10/19 09:04:36;;;;;;;2.05;0.85;;;20.20;53.40;;;;;;5131428;27;20058;-11
2022/10/19 09:07:28;;;;;;;3.15;1.17;;;20.20;53.50;;;;;;5134006;28;20055;-11
2022/10/19 09:10:02;;;;;;;2.70;1.00;;;20.20;53.50;;;;;;5134221;28;20078;-12
2022/10/19 09:12:38;;;;;;;2.08;0.93;;;20.20;53.50;;;;;;5134567;28;20050;-11
2022/10/19 09:15:10;;;;;;;3.65;1.08;;;20.20;53.50;;;;;;5134906;28;20090;-10
2022/10/19 09:17:36;;;;;;;1.55;0.90;;;20.20;53.40;;;;;;5136926;28;20054;-11
2022/10/19 09:20:14;;;;;;;2.95;1.33;;;20.20;53.40;;;;;;5136327;28;20047;-11
2022/10/19 09:22:42;;;;;;;0.98;0.80;;;20.20;53.40;;;;;;5136149;28;20547;-12
2022/10/19 09:25:17;;;;;;;1.90;0.88;;;20.20;53.40;;;;;;5136209;28;20051;-9
2022/10/19 09:27:46;;;;;;;2.83;1.30;;;20.20;53.40;;;;;;5136143;28;20459;-9
2022/10/19 09:30:19;;;;;;;1.05;0.70;;;20.20;53.50;;;;;;5136520;28;20053;-9
2022/10/19 09:32:48;;;;;;;4.60;1.10;;;20.20;53.60;;;;;;5136501;28;21021;-9
2022/10/19 09:35:14;;;;;;;3.55;0.88;;;20.20;53.60;;;;;;5136249;28;20137;-9
2022/10/19 09:37:44;;;;;;;1.55;1.00;;;20.20;53.60;;;;;;5136252;28;20138;-9
2022/10/19 09:40:19;;;;;;;3.83;1.20;;;20.20;53.60;;;;;;5136552;28;20478;-9
2022/10/19 09:42:45;;;;;;;1.58;0.88;;;20.20;53.60;;;;;;5136559;28;20047;-9
2022/10/19 09:45:16;;;;;;;1.00;0.82;;;20.20;53.60;;;;;;5135963;28;20080;-9
2022/10/19 09:47:46;;;;;;;2.33;1.33;;;20.20;53.50;;;;;;5136170;28;20429;-9
2022/10/19 09:50:14;;;;;;;1.80;1.02;;;20.20;53.60;;;;;;5136283;28;20055;-9
2022/10/19 09:52:42;;;;;;;2.22;1.23;;;20.20;53.60;;;;;;5136305;28;20054;-9
2022/10/19 09:55:13;;;;;;;2.60;0.95;;;20.20;53.70;;;;;;5135445;28;20414;-10
2022/10/19 09:57:48;;;;;;;3.10;1.00;;;20.20;53.70;;;;;;5135963;28;20066;-9
2022/10/19 10:00:22;;;;;;;2.05;1.15;;;20.20;53.70;;;;;;5134594;28;20047;-11
2022/10/19 10:02:50;;;;;;;1.65;1.10;;;20.20;53.70;;;;;;5133505;28;20130;-11
2022/10/19 10:05:17;;;;;;;3.97;1.20;;;20.10;53.60;;;;;;5133928;28;20403;-11
2022/10/19 10:07:44;;;;;;;3.00;0.98;;;20.20;53.70;;;;;;5134746;28;20073;-11
2022/10/19 10:10:22;;;;;;;1.48;0.77;;;20.20;53.70;;;;;;5135202;28;20108;-11
2022/10/19 10:12:48;;;;;;;1.98;0.90;;;20.10;53.60;;;;;;5134876;28;20043;-11
2022/10/19 10:15:20;;;;;;;1.10;1.00;;;20.10;53.60;;;;;;5133931;27;20051;-12
2022/10/19 10:17:48;;;;;;;2.45;1.08;;;20.10;53.60;;;;;;5134601;28;20058;-10
2022/10/19 10:20:27;;;;;;;2.33;1.00;;;20.10;53.60;;;;;;5135312;28;20452;-10
2022/10/19 10:23:02;;;;;;;0.77;0.77;;;20.10;53.60;;;;;;5135838;28;20039;-10
2022/10/19 10:25:31;;;;;;;1.52;1.20;;;20.10;53.60;;;;;;5135894;28;20096;-10
2022/10/19 10:28:01;;;;;;;2.00;1.05;;;20.20;54.10;;;;;;5135395;28;20402;-10
2022/10/19 10:30:33;;;;;;;1.65;0.90;;;20.20;53.60;;;;;;5135407;28;20092;-10
2022/10/19 10:33:00;;;;;;;1.75;0.90;;;20.20;53.60;;;;;;5135562;28;20078;-11
2022/10/19 10:35:52;;;;;;;1.92;0.90;;;20.20;53.60;;;;;;5135362;28;20089;-10
2022/10/19 10:38:24;;;;;;;2.38;0.88;;;20.20;53.60;;;;;;5126243;28;20083;-10
2022/10/19 10:41:07;;;;;;;3.13;0.93;;;20.10;53.50;;;;;;5135535;28;20134;-10
2022/10/19 10:43:34;;;;;;;3.00;1.08;;;20.10;53.50;;;;;;5135167;28;20047;-10
2022/10/19 10:46:11;;;;;;;1.35;0.90;;;20.10;53.50;;;;;;5135069;28;20482;-10
2022/10/19 10:48:41;;;;;;;2.25;1.00;;;20.20;53.60;;;;;;5135360;28;20051;-10
2022/10/19 10:51:40;;;;;;;1.98;1.00;;;20.20;53.50;;;;;;5135057;28;20051;-10
2022/10/19 10:54:27;;;;;;;1.98;1.10;;;20.20;53.50;;;;;;5124298;28;20058;-10
2022/10/19 10:57:18;;;;;;;2.97;0.77;;;20.20;53.40;;;;;;5134995;28;20103;-10
2022/10/19 10:59:56;;;;;;;3.55;0.93;;;20.20;53.40;;;;;;5134604;28;20055;-10
2022/10/19 11:02:46;;;;;;;2.80;1.13;;;20.20;53.40;;;;;;5134858;28;20066;-10
2022/10/19 11:05:24;;;;;;;2.10;1.10;;;20.20;53.40;;;;;;5135367;28;20138;-10
2022/10/19 11:07:58;;;;;;;4.78;1.17;;;20.20;53.40;;;;;;5135429;28;20107;-10
2022/10/19 11:10:32;;;;;;;2.42;1.00;;;20.20;53.40;;;;;;5135044;28;20493;-10
2022/10/19 11:13:10;;;;;;;1.73;1.00;;;20.30;53.40;;;;;;5116136;28;20051;-10
2022/10/19 11:15:50;;;;;;;1.92;1.00;;;20.30;53.40;;;;;;5134290;28;20491;-10
2022/10/19 11:18:31;;;;;;;1.65;0.90;;;20.30;53.40;;;;;;5134626;28;20051;-10
2022/10/19 11:21:31;;;;;;;1.40;0.93;;;20.30;53.30;;;;;;5134855;28;20063;-10
2022/10/19 11:24:23;;;;;;;2.92;1.00;;;20.30;53.30;;;;;;5133802;28;20050;-10
2022/10/19 11:27:10;;;;;;;2.63;1.25;;;20.30;53.20;;;;;;5095660;27;20054;-10
2022/10/19 11:30:08;;;;;;;2.53;1.15;;;20.30;53.20;;;;;;5133720;28;20080;-10
2022/10/19 11:32:44;;;;;;;1.55;1.00;;;20.30;53.20;;;;;;5134516;28;20578;-10
2022/10/19 11:35:41;;;;;;;2.05;1.10;;;20.30;53.20;;;;;;5131970;28;20086;-12
2022/10/19 11:38:12;;;;;;;1.33;0.93;;;20.30;53.20;;;;;;5134416;28;20043;-11
2022/10/19 11:40:50;;;;;;;;;;;20.30;53.20;;;;;;5133178;28;20046;-11
2022/10/19 11:43:26;;;;;;;1.15;0.88;;;20.30;53.20;;;;;;5134154;28;19915;-10
2022/10/19 11:46:04;;;;;;;1.83;1.02;;;20.30;53.20;;;;;;5134357;28;20054;-11
2022/10/19 11:49:03;;;;;;;3.28;1.33;;;20.20;53.10;;;;;;5132532;28;20388;-12
2022/10/19 11:51:33;;;;;;;2.35;0.80;;;20.20;53.10;;;;;;5131821;28;20039;-12
2022/10/19 11:54:27;;;;;;;3.23;1.27;;;20.20;53.10;;;;;;5114463;28;20079;-11
2022/10/19 11:57:17;;;;;;;1.20;1.02;;;20.20;53.20;;;;;;5132739;28;20047;-11
2022/10/19 12:00:01;;;;;;;1.75;0.95;;;20.20;53.20;;;;;;5132815;28;20387;-10
2022/10/19 12:02:45;;;;;;;3.15;1.20;;;20.20;53.20;;;;;;5132835;28;20076;-11
2022/10/19 12:05:17;;;;;;;2.10;1.15;;;20.20;53.20;;;;;;5133509;28;20039;-10
2022/10/19 12:08:13;;;;;;;0.90;0.80;;;20.20;53.20;;;;;;5133701;28;20051;-10
2022/10/19 12:10:47;;;;;;;2.33;1.23;;;20.20;53.20;;;;;;5115289;28;20062;-10
2022/10/19 12:13:18;;;;;;;1.48;1.10;;;20.20;53.20;;;;;;5133500;28;20574;-10
2022/10/19 12:15:48;;;;;;;1.83;1.15;;;20.20;53.20;;;;;;5133511;28;20055;-10
2022/10/19 12:18:32;;;;;;;3.90;1.17;;;20.20;53.20;;;;;;5133646;28;20059;-11
2022/10/19 12:21:03;;;;;;;2.53;0.98;;;20.20;53.10;;;;;;5133247;28;20375;-10
2022/10/19 12:23:37;;;;;;;2.58;1.35;;;20.20;53.10;;;;;;5131842;28;20479;-12
2022/10/19 12:26:06;;;;;;;3.60;1.13;;;20.20;53.10;;;;;;5133171;28;20081;-10
2022/10/19 12:28:35;;;;;;;1.10;1.00;;;20.20;53.00;;;;;;5133537;28;20079;-10
2022/10/19 12:31:03;;;;;;;2.97;1.02;;;20.20;53.00;;;;;;5133012;28;20050;-10
2022/10/19 12:33:46;;;;;;;1.85;1.10;;;20.20;53.10;;;;;;5133648;28;20138;-10
2022/10/19 12:36:27;;;;;;;2.55;1.00;;;20.20;53.10;;;;;;5133522;28;20059;-10
2022/10/19 12:39:11;;;;;;;1.30;1.10;;;20.20;53.10;;;;;;5132563;27;20120;-10
2022/10/19 12:41:52;;;;;;;2.53;1.20;;;20.20;53.30;;;;;;5132349;28;20051;-11
2022/10/19 12:44:45;;;;;;;2.17;1.08;;;20.20;53.10;;;;;;5130770;28;20142;-11
2022/10/19 12:47:17;;;;;;;1.83;1.10;;;20.20;53.10;;;;;;5131086;28;20051;-11
2022/10/19 12:49:48;;;;;;;1.23;0.80;;;20.20;53.10;;;;;;5131454;28;20054;-11
2022/10/19 12:52:33;;;;;;;;;;;20.20;53.10;;;;;;5132507;28;20055;-11
2022/10/19 12:55:26;;;;;;;1.70;0.90;;;20.20;53.20;;;;;;5132091;28;19922;-11
2022/10/19 12:58:05;;;;;;;3.92;1.23;;;20.20;53.20;;;;;;5132846;28;20054;-10
2022/10/19 13:00:35;;;;;;;2.25;1.10;;;20.20;53.20;;;;;;5133048;28;20055;-10
2022/10/19 13:03:19;;;;;;;3.42;0.98;;;20.20;53.20;;;;;;5133128;28;20406;-10
2022/10/19 13:05:59;;;;;;;4.68;1.30;;;20.20;53.20;;;;;;5132687;28;20517;-11
2022/10/19 13:08:42;;;;;;;2.65;1.00;;;20.20;53.30;;;;;;5133183;28;20139;-11
2022/10/19 13:11:14;;;;;;;1.73;1.13;;;20.20;53.30;;;;;;5132799;28;20487;-11